createdAt,value
2018-03-27T00:02:10.399Z,80.59
2018-03-27T00:04:36.513Z,80.58
2018-03-27T00:07:02.625Z,80.68
2018-03-27T00:09:28.727Z,81.34
2018-03-27T00:11:54.892Z,80.69
2018-03-27T00:14:20.947Z,80.35
2018-03-27T00:16:47.035Z,81.51
2018-03-27T00:19:13.179Z,81.83
2018-03-27T00:21:39.272Z,81.92
2018-03-27T00:24:05.677Z,82.00
2018-03-27T00:26:31.816Z,82.37
2018-03-27T00:29:10.039Z,82.69
2018-03-27T00:31:48.401Z,83.04
2018-03-27T00:34:26.600Z,83.62
2018-03-27T00:37:04.788Z,83.42
2018-03-27T00:39:43.027Z,82.60
2018-03-27T00:42:33.973Z,83.11
2018-03-27T00:45:00.109Z,82.48
2018-03-27T00:47:26.189Z,82.67
2018-03-27T00:49:52.327Z,82.94
2018-03-27T00:52:18.417Z,82.72
2018-03-27T00:54:44.520Z,82.72
2018-03-27T00:57:10.900Z,82.83
2018-03-27T00:59:36.984Z,83.31
2018-03-27T01:02:03.077Z,83.68
2018-03-27T01:04:29.262Z,82.93
2018-03-27T01:06:55.377Z,82.86
2018-03-27T01:09:21.467Z,82.81
2018-03-27T01:11:47.540Z,82.77
2018-03-27T01:14:13.676Z,82.57
2018-03-27T01:16:39.800Z,83.49
2018-03-27T01:19:05.876Z,83.46
2018-03-27T01:21:31.943Z,83.49
2018-03-27T01:23:58.031Z,82.88
2018-03-27T01:26:24.107Z,82.81
2018-03-27T01:28:50.217Z,82.79
2018-03-27T01:31:16.261Z,82.63
2018-03-27T01:33:42.394Z,82.77
2018-03-27T01:36:08.553Z,82.93
2018-03-27T01:38:34.666Z,83.34
2018-03-27T01:41:00.700Z,83.48
2018-03-27T01:43:26.784Z,83.43
2018-03-27T01:45:52.896Z,83.06
2018-03-27T01:48:19.021Z,83.09
2018-03-27T01:50:45.068Z,82.92
2018-03-27T01:53:17.658Z,82.56
2018-03-27T01:55:43.837Z,82.46
2018-03-27T01:58:09.948Z,82.72
2018-03-27T02:00:36.087Z,82.60
2018-03-27T02:03:02.216Z,82.61
2018-03-27T02:05:28.236Z,82.32
2018-03-27T02:07:54.186Z,82.80
2018-03-27T02:10:20.229Z,83.03
2018-03-27T02:12:52.265Z,81.41
2018-03-27T02:15:24.531Z,81.30
2018-03-27T02:17:56.642Z,81.84
2018-03-27T02:20:28.729Z,82.72
2018-03-27T02:22:54.871Z,83.95
2018-03-27T02:25:20.945Z,84.49
2018-03-27T02:27:47.034Z,84.12
2018-03-27T02:30:13.135Z,84.47
2018-03-27T02:32:39.296Z,85.08
2018-03-27T02:35:05.396Z,84.78
2018-03-27T02:37:31.468Z,84.31
2018-03-27T02:39:57.531Z,84.99
2018-03-27T02:42:23.626Z,85.39
2018-03-27T02:44:49.671Z,84.72
2018-03-27T02:47:15.727Z,84.50
2018-03-27T02:49:41.751Z,85.30
2018-03-27T02:52:07.803Z,85.53
2018-03-27T02:54:33.812Z,85.16
2018-03-27T02:56:59.905Z,84.86
2018-03-27T02:59:25.933Z,85.19
2018-03-27T03:01:52.063Z,85.33
2018-03-27T03:04:18.124Z,85.56
2018-03-27T03:06:44.213Z,86.13
2018-03-27T03:09:10.227Z,86.25
2018-03-27T03:11:36.293Z,86.13
2018-03-27T03:14:02.326Z,86.18
2018-03-27T03:16:28.441Z,86.14
2018-03-27T03:18:54.455Z,86.33
2018-03-27T03:21:20.456Z,85.85
2018-03-27T03:23:46.464Z,85.47
2018-03-27T03:26:12.462Z,85.07
2018-03-27T03:28:38.530Z,85.37
2018-03-27T03:31:04.727Z,86.13
2018-03-27T03:33:30.761Z,85.69
2018-03-27T03:35:56.809Z,85.84
2018-03-27T03:38:22.865Z,85.82
2018-03-27T03:40:48.922Z,85.90
2018-03-27T03:43:14.966Z,85.73
2018-03-27T03:45:41.005Z,85.34
2018-03-27T03:48:07.029Z,84.82
2018-03-27T03:50:33.137Z,85.00
2018-03-27T03:52:59.201Z,85.43
2018-03-27T03:55:25.234Z,85.18
2018-03-27T03:57:51.257Z,85.08
2018-03-27T04:00:17.376Z,84.73
2018-03-27T04:02:43.558Z,83.91
2018-03-27T04:05:09.533Z,83.92
2018-03-27T04:07:35.558Z,84.40
2018-03-27T04:10:02.026Z,84.54
2018-03-27T04:12:28.031Z,85.22
2018-03-27T04:14:54.021Z,84.91
2018-03-27T04:17:20.042Z,85.06
2018-03-27T04:19:46.076Z,85.87
2018-03-27T04:22:12.109Z,86.32
2018-03-27T04:24:38.126Z,86.02
2018-03-27T04:27:04.152Z,86.24
2018-03-27T04:29:30.201Z,85.94
2018-03-27T04:31:56.266Z,85.75
2018-03-27T04:34:22.630Z,85.76
2018-03-27T04:36:48.622Z,85.69
2018-03-27T04:39:14.621Z,85.73
2018-03-27T04:41:40.706Z,85.85
2018-03-27T04:44:06.713Z,85.77
2018-03-27T04:46:32.758Z,85.55
2018-03-27T04:48:58.821Z,85.34
2018-03-27T04:51:24.808Z,84.99
2018-03-27T04:53:50.869Z,84.96
2018-03-27T04:56:16.923Z,85.18
2018-03-27T04:58:43.046Z,85.05
2018-03-27T05:01:09.319Z,84.61
2018-03-27T05:03:35.346Z,84.50
2018-03-27T05:06:01.355Z,84.61
2018-03-27T05:08:27.397Z,84.29
2018-03-27T05:10:53.435Z,85.95
2018-03-27T05:13:19.477Z,85.20
2018-03-27T05:15:45.546Z,85.60
2018-03-27T05:18:11.640Z,86.23
2018-03-27T05:20:37.663Z,86.27
2018-03-27T05:23:03.685Z,86.59
2018-03-27T05:25:29.744Z,86.61
2018-03-27T05:27:55.821Z,87.17
2018-03-27T05:30:21.919Z,87.71
2018-03-27T05:32:48.058Z,87.00
2018-03-27T05:35:14.190Z,86.38
2018-03-27T05:37:40.200Z,85.82
2018-03-27T05:40:06.210Z,87.17
2018-03-27T05:42:32.242Z,86.90
2018-03-27T05:44:58.281Z,87.66
2018-03-27T05:47:24.333Z,88.02
2018-03-27T05:49:50.367Z,87.94
2018-03-27T05:52:16.390Z,87.11
2018-03-27T05:54:43.018Z,87.74
2018-03-27T05:57:09.141Z,87.46
2018-03-27T05:59:35.197Z,87.41
2018-03-27T06:02:01.272Z,87.33
2018-03-27T06:04:27.319Z,86.94
2018-03-27T06:06:53.334Z,87.39
2018-03-27T06:09:19.385Z,87.27
2018-03-27T06:11:45.491Z,86.98
2018-03-27T06:14:11.528Z,86.45
2018-03-27T06:16:37.605Z,86.32
2018-03-27T06:19:04.282Z,86.66
2018-03-27T06:21:30.293Z,87.61
2018-03-27T06:23:56.320Z,87.41
2018-03-27T06:26:22.337Z,87.19
2018-03-27T06:28:48.381Z,87.44
2018-03-27T06:31:14.412Z,87.47
2018-03-27T06:33:40.546Z,87.62
2018-03-27T06:36:06.537Z,86.94
2018-03-27T06:38:32.938Z,86.28
2018-03-27T06:40:58.956Z,86.10
2018-03-27T06:43:24.973Z,85.31
2018-03-27T06:45:51.192Z,85.01
2018-03-27T06:48:17.191Z,84.21
2018-03-27T06:50:43.354Z,83.93
2018-03-27T06:53:09.404Z,83.45
2018-03-27T06:55:35.434Z,82.58
2018-03-27T06:58:01.451Z,82.40
2018-03-27T07:00:27.514Z,81.13
2018-03-27T07:02:53.601Z,80.22
2018-03-27T07:05:19.693Z,79.99
2018-03-27T07:07:45.657Z,79.87
2018-03-27T07:10:11.694Z,80.79
2018-03-27T07:12:37.748Z,79.72
2018-03-27T07:15:04.005Z,79.51
2018-03-27T07:17:30.034Z,79.33
2018-03-27T07:19:56.089Z,78.74
2018-03-27T07:22:22.073Z,79.26
2018-03-27T07:24:48.091Z,80.49
2018-03-27T07:27:14.169Z,80.43
2018-03-27T07:29:40.705Z,81.29
2018-03-27T07:32:06.977Z,81.38
2018-03-27T07:34:33.013Z,81.21
2018-03-27T07:36:59.168Z,79.58
2018-03-27T07:39:25.216Z,79.90
2018-03-27T07:41:51.244Z,80.43
2018-03-27T07:44:17.286Z,80.40
2018-03-27T07:46:43.364Z,80.16
2018-03-27T07:49:09.364Z,80.75
2018-03-27T07:51:35.409Z,79.97
2018-03-27T07:54:01.457Z,79.80
2018-03-27T07:56:27.471Z,78.12
2018-03-27T07:58:53.485Z,77.18
2018-03-27T08:01:19.536Z,76.63
2018-03-27T08:03:45.604Z,76.64
2018-03-27T08:06:11.731Z,76.30
2018-03-27T08:08:37.782Z,77.66
2018-03-27T08:11:03.950Z,75.67
2018-03-27T08:13:29.913Z,74.84
2018-03-27T08:15:55.968Z,75.01
2018-03-27T08:18:22.034Z,75.07
2018-03-27T08:20:48.086Z,75.49
2018-03-27T08:23:14.280Z,74.38
2018-03-27T08:25:40.781Z,73.33
2018-03-27T08:28:06.817Z,74.01
2018-03-27T08:30:32.850Z,74.55
2018-03-27T08:32:58.897Z,72.87
2018-03-27T08:35:24.996Z,72.63
2018-03-27T08:37:51.055Z,72.97
2018-03-27T08:40:17.273Z,71.55
2018-03-27T08:42:43.428Z,67.41
2018-03-27T08:45:09.449Z,64.45
2018-03-27T08:47:35.498Z,63.77
2018-03-27T08:50:01.505Z,62.44
2018-03-27T08:52:27.532Z,63.58
2018-03-27T08:54:53.875Z,64.86
2018-03-27T08:57:19.876Z,65.25
2018-03-27T08:59:45.925Z,62.04
2018-03-27T09:02:11.977Z,60.78
2018-03-27T09:04:38.012Z,60.54
2018-03-27T09:07:04.088Z,60.30
2018-03-27T09:09:30.049Z,60.58
2018-03-27T09:11:56.049Z,58.88
2018-03-27T09:14:22.052Z,57.41
2018-03-27T09:16:48.165Z,58.82
2018-03-27T09:19:14.190Z,58.34
2018-03-27T09:21:40.226Z,55.80
2018-03-27T09:24:06.347Z,54.50
2018-03-27T09:26:32.379Z,54.86
2018-03-27T09:28:58.413Z,51.38
2018-03-27T09:31:24.477Z,50.94
2018-03-27T09:33:50.510Z,46.11
2018-03-27T09:36:16.820Z,45.95
2018-03-27T09:38:42.872Z,45.98
2018-03-27T09:41:08.927Z,46.49
2018-03-27T09:43:34.954Z,44.16
2018-03-27T09:46:00.958Z,41.37
2018-03-27T09:48:27.003Z,42.44
2018-03-27T09:50:53.507Z,43.42
2018-03-27T09:53:19.520Z,43.74
2018-03-27T09:55:45.583Z,44.13
2018-03-27T09:58:11.686Z,45.68
2018-03-27T10:00:43.826Z,45.17
2018-03-27T10:03:10.004Z,44.04
2018-03-27T10:05:35.990Z,44.72
2018-03-27T10:08:02.168Z,44.13
2018-03-27T10:10:28.215Z,42.38
2018-03-27T10:12:54.865Z,43.61
2018-03-27T10:15:20.899Z,45.99
2018-03-27T10:17:46.929Z,45.49
2018-03-27T10:20:12.957Z,46.05
2018-03-27T10:22:39.016Z,46.40
2018-03-27T10:25:05.240Z,47.61
2018-03-27T10:27:31.259Z,46.63
2018-03-27T10:29:57.309Z,45.36
2018-03-27T10:32:23.578Z,45.74
2018-03-27T10:34:49.663Z,45.79
2018-03-27T10:37:15.725Z,46.21
2018-03-27T10:39:41.930Z,45.98
2018-03-27T10:42:07.973Z,46.75
2018-03-27T10:44:33.987Z,46.71
2018-03-27T10:47:00.066Z,46.71
2018-03-27T10:49:26.093Z,46.22
2018-03-27T10:51:52.175Z,47.52
2018-03-27T10:54:18.189Z,46.60
2018-03-27T10:56:44.226Z,46.06
2018-03-27T10:59:10.264Z,45.22
2018-03-27T11:01:36.307Z,45.51
2018-03-27T11:04:02.765Z,43.94
2018-03-27T11:06:28.798Z,43.82
2018-03-27T11:08:54.841Z,43.62
2018-03-27T11:11:20.939Z,45.38
2018-03-27T11:13:47.126Z,44.98
2018-03-27T11:16:13.179Z,44.72
2018-03-27T11:18:39.298Z,46.01
2018-03-27T11:21:05.337Z,47.42
2018-03-27T11:23:31.341Z,51.15
2018-03-27T11:25:57.346Z,54.49
2018-03-27T11:28:23.375Z,56.84
2018-03-27T11:30:49.651Z,56.95
2018-03-27T11:33:15.733Z,57.39
2018-03-27T11:35:41.790Z,55.87
2018-03-27T11:38:07.878Z,52.02
2018-03-27T11:40:33.895Z,50.39
2018-03-27T11:42:59.942Z,47.78
2018-03-27T11:45:25.950Z,47.29
2018-03-27T11:47:52.046Z,48.02
2018-03-27T11:50:18.066Z,47.67
2018-03-27T11:52:44.113Z,46.80
2018-03-27T11:55:10.110Z,47.58
2018-03-27T11:57:36.585Z,45.94
2018-03-27T12:00:02.608Z,47.85
2018-03-27T12:02:28.674Z,44.40
2018-03-27T12:05:06.115Z,43.03
2018-03-27T12:07:32.239Z,40.65
2018-03-27T12:09:58.234Z,39.49
2018-03-27T12:12:24.789Z,39.49
2018-03-27T12:14:50.957Z,39.03
2018-03-27T12:17:16.907Z,39.50
2018-03-27T12:19:43.710Z,40.51
2018-03-27T12:22:10.175Z,40.22
2018-03-27T12:24:36.200Z,41.29
2018-03-27T12:27:02.444Z,40.83
2018-03-27T12:29:28.470Z,38.95
2018-03-27T12:31:54.511Z,39.72
2018-03-27T12:34:20.552Z,38.94
2018-03-27T12:36:46.607Z,39.68
2018-03-27T12:39:12.629Z,38.98
2018-03-27T12:41:38.681Z,39.17
2018-03-27T12:44:04.818Z,39.06
2018-03-27T12:46:30.836Z,43.30
2018-03-27T12:48:56.857Z,45.72
2018-03-27T12:51:23.172Z,46.67
2018-03-27T12:53:49.212Z,46.15
2018-03-27T12:56:15.222Z,45.76
2018-03-27T12:58:41.274Z,43.27
2018-03-27T13:01:07.322Z,42.55
2018-03-27T13:03:33.386Z,38.88
2018-03-27T13:05:59.470Z,38.57
2018-03-27T13:08:25.527Z,38.54
2018-03-27T13:10:51.556Z,37.57
2018-03-27T13:13:17.670Z,39.60
2018-03-27T13:15:43.915Z,41.71
2018-03-27T13:18:10.030Z,44.40
2018-03-27T13:20:36.106Z,44.50
2018-03-27T13:23:02.363Z,44.21
2018-03-27T13:25:28.469Z,45.54
2018-03-27T13:27:54.531Z,45.22
2018-03-27T13:30:20.593Z,43.82
2018-03-27T13:32:46.780Z,44.29
2018-03-27T13:35:12.825Z,43.16
2018-03-27T13:37:38.857Z,45.02
2018-03-27T13:40:04.905Z,45.92
2018-03-27T13:42:30.889Z,43.82
2018-03-27T13:44:57.014Z,44.41
2018-03-27T13:47:23.079Z,44.42
2018-03-27T13:49:50.021Z,43.52
2018-03-27T13:52:16.074Z,43.04
2018-03-27T13:54:42.002Z,44.11
2018-03-27T13:57:08.071Z,41.95
2018-03-27T13:59:34.213Z,43.60
2018-03-27T14:02:00.269Z,42.83
2018-03-27T14:04:26.291Z,43.81
2018-03-27T14:06:52.921Z,44.77
2018-03-27T14:09:19.003Z,44.97
2018-03-27T14:11:45.009Z,44.32
2018-03-27T14:14:11.035Z,43.86
2018-03-27T14:16:37.117Z,42.98
2018-03-27T14:19:03.348Z,41.69
2018-03-27T14:21:29.374Z,43.01
2018-03-27T14:23:55.435Z,44.16
2018-03-27T14:26:21.513Z,44.68
2018-03-27T14:28:47.582Z,44.43
2018-03-27T14:31:15.764Z,42.53
2018-03-27T14:33:41.849Z,39.91
2018-03-27T14:36:07.971Z,38.05
2018-03-27T14:38:34.037Z,37.32
2018-03-27T14:41:00.142Z,36.03
2018-03-27T14:43:26.201Z,35.32
2018-03-27T14:45:52.210Z,34.93
2018-03-27T14:48:18.286Z,35.63
2018-03-27T14:50:44.312Z,35.28
2018-03-27T14:53:10.391Z,35.25
2018-03-27T14:55:36.477Z,36.86
2018-03-27T14:58:02.501Z,38.89
2018-03-27T15:00:28.581Z,37.86
2018-03-27T15:02:54.625Z,40.16
2018-03-27T15:05:20.675Z,41.11
2018-03-27T15:07:46.713Z,39.77
2018-03-27T15:10:12.753Z,43.63
2018-03-27T15:12:38.762Z,44.77
2018-03-27T15:15:04.999Z,43.82
2018-03-27T15:17:31.004Z,44.27
2018-03-27T15:19:57.079Z,44.75
2018-03-27T15:22:23.102Z,44.91
2018-03-27T15:24:49.148Z,45.68
2018-03-27T15:27:15.158Z,46.08
2018-03-27T15:29:41.210Z,45.89
2018-03-27T15:32:07.265Z,46.34
2018-03-27T15:34:33.237Z,46.40
2018-03-27T15:36:59.242Z,47.48
2018-03-27T15:39:25.360Z,48.89
2018-03-27T15:41:51.430Z,49.97
2018-03-27T15:44:17.465Z,50.42
2018-03-27T15:46:43.543Z,50.58
2018-03-27T15:49:09.626Z,51.33
2018-03-27T15:51:35.687Z,51.66
2018-03-27T15:54:01.727Z,52.14
2018-03-27T15:56:27.780Z,52.18
2018-03-27T15:58:53.771Z,51.83
2018-03-27T16:01:19.858Z,52.38
2018-03-27T16:03:45.915Z,51.88
2018-03-27T16:06:11.938Z,52.25
2018-03-27T16:08:37.971Z,52.81
2018-03-27T16:11:04.069Z,52.00
2018-03-27T16:13:30.164Z,51.96
2018-03-27T16:15:56.221Z,51.62
2018-03-27T16:18:22.417Z,51.71
2018-03-27T16:20:48.559Z,51.86
2018-03-27T16:23:14.655Z,51.94
2018-03-27T16:25:40.729Z,51.94
2018-03-27T16:28:06.750Z,51.83
2018-03-27T16:30:32.822Z,51.38
2018-03-27T16:32:58.917Z,51.53
2018-03-27T16:35:25.013Z,52.69
2018-03-27T16:37:51.099Z,51.27
2018-03-27T16:40:17.159Z,50.38
2018-03-27T16:42:43.196Z,50.44
2018-03-27T16:45:09.292Z,51.08
2018-03-27T16:47:35.533Z,51.39
2018-03-27T16:50:01.616Z,51.78
2018-03-27T16:52:27.696Z,51.98
2018-03-27T16:54:53.718Z,52.35
2018-03-27T16:57:19.764Z,52.36
2018-03-27T16:59:45.805Z,52.59
2018-03-27T17:02:11.810Z,52.15
2018-03-27T17:04:37.865Z,52.64
2018-03-27T17:07:03.892Z,53.72
2018-03-27T17:09:29.989Z,52.60
2018-03-27T17:11:56.021Z,52.75
2018-03-27T17:14:22.199Z,52.74
2018-03-27T17:16:48.241Z,53.03
2018-03-27T17:19:14.342Z,53.70
2018-03-27T17:21:40.494Z,54.14
2018-03-27T17:24:06.640Z,54.06
2018-03-27T17:26:32.713Z,54.00
2018-03-27T17:28:58.811Z,54.12
2018-03-27T17:31:24.875Z,54.88
2018-03-27T17:33:50.999Z,55.67
2018-03-27T17:36:17.050Z,55.63
2018-03-27T17:38:43.097Z,55.38
2018-03-27T17:41:09.137Z,54.36
2018-03-27T17:43:35.154Z,54.88
2018-03-27T17:46:01.876Z,55.53
2018-03-27T17:48:27.977Z,55.69
2018-03-27T17:50:54.387Z,55.26
2018-03-27T17:53:20.435Z,54.98
2018-03-27T17:55:46.479Z,55.32
2018-03-27T17:58:12.560Z,56.48
2018-03-27T18:00:38.716Z,56.91
2018-03-27T18:03:04.761Z,55.87
2018-03-27T18:05:30.777Z,57.25
2018-03-27T18:07:56.908Z,57.97
2018-03-27T18:10:22.987Z,58.00
2018-03-27T18:12:49.077Z,58.68
2018-03-27T18:15:15.113Z,57.99
2018-03-27T18:17:41.126Z,57.92
2018-03-27T18:20:07.186Z,58.42
2018-03-27T18:22:33.351Z,58.87
2018-03-27T18:24:59.410Z,59.00
2018-03-27T18:27:25.812Z,59.35
2018-03-27T18:29:51.825Z,59.67
2018-03-27T18:32:18.026Z,59.99
2018-03-27T18:34:44.058Z,60.05
2018-03-27T18:37:10.104Z,60.29
2018-03-27T18:39:36.219Z,60.47
2018-03-27T18:42:02.253Z,60.40
2018-03-27T18:44:28.370Z,60.57
2018-03-27T18:46:54.422Z,60.79
2018-03-27T18:49:20.507Z,61.42
2018-03-27T18:51:46.599Z,61.43
2018-03-27T18:54:12.690Z,61.54
2018-03-27T18:56:38.708Z,61.52
2018-03-27T18:59:04.838Z,61.34
2018-03-27T19:01:30.899Z,61.26
2018-03-27T19:03:56.990Z,61.38
2018-03-27T19:06:23.116Z,62.20
2018-03-27T19:08:49.178Z,62.82
2018-03-27T19:11:15.296Z,63.21
2018-03-27T19:13:41.403Z,63.23
2018-03-27T19:16:07.514Z,63.29
2018-03-27T19:18:33.576Z,63.24
2018-03-27T19:21:00.056Z,63.63
2018-03-27T19:23:26.151Z,63.13
2018-03-27T19:25:52.238Z,63.22
2018-03-27T19:28:18.434Z,63.09
2018-03-27T19:30:44.472Z,63.21
2018-03-27T19:33:10.523Z,63.53
2018-03-27T19:35:36.685Z,63.62
2018-03-27T19:38:02.688Z,64.64
2018-03-27T19:40:28.750Z,64.72
2018-03-27T19:42:54.776Z,64.63
2018-03-27T19:45:20.837Z,64.98
2018-03-27T19:47:46.927Z,65.28
2018-03-27T19:50:16.365Z,65.59
2018-03-27T19:52:42.421Z,65.40
2018-03-27T19:55:08.471Z,65.30
2018-03-27T19:57:35.868Z,65.73
2018-03-27T20:00:02.001Z,65.41
2018-03-27T20:02:28.112Z,65.89
2018-03-27T20:04:54.266Z,66.25
2018-03-27T20:07:20.298Z,65.69
2018-03-27T20:09:46.391Z,66.11
2018-03-27T20:12:12.486Z,66.57
2018-03-27T20:14:38.510Z,66.22
2018-03-27T20:17:04.529Z,65.76
2018-03-27T20:19:30.542Z,65.28
2018-03-27T20:21:56.606Z,65.75
2018-03-27T20:24:22.644Z,66.11
2018-03-27T20:26:48.682Z,66.25
2018-03-27T20:29:14.708Z,66.62
2018-03-27T20:31:40.805Z,66.48
2018-03-27T20:34:06.863Z,67.30
2018-03-27T20:36:33.090Z,67.40
2018-03-27T20:38:59.137Z,67.34
2018-03-27T20:41:25.227Z,67.82
2018-03-27T20:43:51.313Z,67.82
2018-03-27T20:46:17.374Z,68.13
2018-03-27T20:48:43.412Z,68.40
2018-03-27T20:51:09.537Z,68.45
2018-03-27T20:53:35.662Z,68.47
2018-03-27T20:56:02.661Z,68.14
2018-03-27T20:58:28.656Z,68.56
2018-03-27T21:00:54.810Z,68.75
2018-03-27T21:03:20.894Z,69.10
2018-03-27T21:05:47.002Z,70.08
2018-03-27T21:08:13.277Z,68.49
2018-03-27T21:10:39.281Z,68.28
2018-03-27T21:13:05.323Z,68.31
2018-03-27T21:15:31.405Z,67.79
2018-03-27T21:17:57.417Z,67.83
2018-03-27T21:20:23.393Z,68.47
2018-03-27T21:22:49.437Z,68.91
2018-03-27T21:25:15.504Z,68.68
2018-03-27T21:27:41.529Z,68.41
2018-03-27T21:30:07.570Z,68.37
2018-03-27T21:32:33.627Z,68.62
2018-03-27T21:34:59.702Z,68.93
2018-03-27T21:37:25.659Z,69.22
2018-03-27T21:39:51.697Z,69.20
2018-03-27T21:42:17.846Z,69.73
2018-03-27T21:44:43.956Z,70.00
2018-03-27T21:47:10.042Z,70.54
2018-03-27T21:49:36.108Z,70.14
2018-03-27T21:52:02.178Z,70.37
2018-03-27T21:54:28.272Z,71.06
2018-03-27T21:56:54.647Z,70.18
2018-03-27T21:59:20.778Z,69.98
2018-03-27T22:01:46.831Z,70.17
2018-03-27T22:04:12.923Z,69.46
2018-03-27T22:06:38.950Z,69.27
2018-03-27T22:09:11.902Z,69.14
2018-03-27T22:11:37.977Z,69.07
2018-03-27T22:14:04.029Z,69.60
2018-03-27T22:16:30.067Z,69.29
2018-03-27T22:18:56.838Z,69.21
2018-03-27T22:21:22.896Z,69.71
2018-03-27T22:23:48.888Z,69.89
2018-03-27T22:26:14.912Z,69.83
2018-03-27T22:28:40.928Z,69.60
2018-03-27T22:31:06.929Z,69.67
2018-03-27T22:33:32.983Z,69.81
2018-03-27T22:35:58.992Z,69.95
2018-03-27T22:38:25.038Z,70.07
2018-03-27T22:40:51.070Z,70.02
2018-03-27T22:43:17.102Z,69.86
2018-03-27T22:45:43.161Z,70.24
2018-03-27T22:48:09.259Z,70.28
2018-03-27T22:50:35.245Z,70.59
2018-03-27T22:53:01.214Z,70.26
2018-03-27T22:55:27.288Z,70.55
2018-03-27T22:57:53.294Z,70.74
2018-03-27T23:00:20.245Z,70.87
2018-03-27T23:02:46.219Z,71.17
2018-03-27T23:05:12.273Z,71.36
2018-03-27T23:07:38.303Z,71.51
2018-03-27T23:10:04.467Z,72.34
2018-03-27T23:12:30.486Z,72.53
2018-03-27T23:14:56.505Z,72.91
2018-03-27T23:17:22.531Z,72.90
2018-03-27T23:19:48.581Z,73.10
2018-03-27T23:22:26.655Z,73.39
2018-03-27T23:24:52.682Z,73.80
2018-03-27T23:27:18.628Z,73.97
2018-03-27T23:29:44.662Z,73.18
2018-03-27T23:32:10.720Z,73.63
2018-03-27T23:34:36.717Z,73.76
2018-03-27T23:37:02.746Z,74.04
2018-03-27T23:39:28.824Z,73.57
2018-03-27T23:41:54.887Z,74.04
2018-03-27T23:44:20.859Z,75.21
2018-03-27T23:46:46.901Z,74.77
2018-03-27T23:49:12.904Z,74.91
2018-03-27T23:51:38.946Z,74.87
2018-03-27T23:54:05.008Z,75.01
2018-03-27T23:56:31.124Z,74.65
2018-03-27T23:58:57.127Z,74.85
